sensor_id;sensor_type;location;lat;lon;timestamp;P1;durP1;ratioP1;P2;durP2;ratioP2
20462;SDS011;10390;53.566;9.980;2023-05-07T00:01:06;10.82;;;7.28;;
20462;SDS011;10390;53.566;9.980;2023-05-07T00:03:31;10.10;;;7.80;;
20462;SDS011;10390;53.566;9.980;2023-05-07T00:05:57;10.43;;;8.25;;
20462;SDS011;10390;53.566;9.980;2023-05-07T00:08:23;9.82;;;7.90;;
20462;SDS011;10390;53.566;9.980;2023-05-07T00:10:49;10.82;;;7.40;;
20462;SDS011;10390;53.566;9.980;2023-05-07T00:13:15;10.38;;;7.53;;
20462;SDS011;10390;53.566;9.980;2023-05-07T00:15:41;10.52;;;7.90;;
20462;SDS011;10390;53.566;9.980;2023-05-07T00:18:06;11.52;;;7.85;;
20462;SDS011;10390;53.566;9.980;2023-05-07T00:20:32;9.73;;;7.70;;
20462;SDS011;10390;53.566;9.980;2023-05-07T00:22:57;10.50;;;7.75;;
20462;SDS011;10390;53.566;9.980;2023-05-07T00:25:23;9.80;;;7.53;;
20462;SDS011;10390;53.566;9.980;2023-05-07T00:27:49;9.18;;;7.43;;
20462;SDS011;10390;53.566;9.980;2023-05-07T00:30:17;13.57;;;8.02;;
20462;SDS011;10390;53.566;9.980;2023-05-07T00:32:43;10.07;;;8.18;;
20462;SDS011;10390;53.566;9.980;2023-05-07T00:35:10;9.60;;;7.25;;
20462;SDS011;10390;53.566;9.980;2023-05-07T00:37:36;10.85;;;8.02;;
20462;SDS011;10390;53.566;9.980;2023-05-07T00:40:02;10.70;;;8.05;;
20462;SDS011;10390;53.566;9.980;2023-05-07T00:42:31;10.98;;;7.22;;
20462;SDS011;10390;53.566;9.980;2023-05-07T00:44:57;10.18;;;7.28;;
20462;SDS011;10390;53.566;9.980;2023-05-07T00:47:23;10.50;;;7.55;;
20462;SDS011;10390;53.566;9.980;2023-05-07T00:49:51;11.35;;;7.40;;
20462;SDS011;10390;53.566;9.980;2023-05-07T00:52:17;11.00;;;7.88;;
20462;SDS011;10390;53.566;9.980;2023-05-07T00:54:45;10.25;;;7.30;;
20462;SDS011;10390;53.566;9.980;2023-05-07T00:57:12;8.75;;;7.43;;
20462;SDS011;10390;53.566;9.980;2023-05-07T00:59:38;11.85;;;7.45;;
20462;SDS011;10390;53.566;9.980;2023-05-07T01:02:04;10.65;;;7.15;;
20462;SDS011;10390;53.566;9.980;2023-05-07T01:04:30;9.85;;;7.20;;
20462;SDS011;10390;53.566;9.980;2023-05-07T01:06:55;9.10;;;6.57;;
20462;SDS011;10390;53.566;9.980;2023-05-07T01:09:23;8.65;;;7.35;;
20462;SDS011;10390;53.566;9.980;2023-05-07T01:11:50;9.05;;;6.97;;
20462;SDS011;10390;53.566;9.980;2023-05-07T01:14:16;10.13;;;7.20;;
20462;SDS011;10390;53.566;9.980;2023-05-07T01:16:43;8.73;;;6.57;;
20462;SDS011;10390;53.566;9.980;2023-05-07T01:19:09;8.10;;;6.50;;
20462;SDS011;10390;53.566;9.980;2023-05-07T01:21:41;10.25;;;6.57;;
20462;SDS011;10390;53.566;9.980;2023-05-07T01:24:11;10.43;;;7.55;;
20462;SDS011;10390;53.566;9.980;2023-05-07T01:26:37;9.13;;;7.18;;
20462;SDS011;10390;53.566;9.980;2023-05-07T01:29:04;10.10;;;7.45;;
20462;SDS011;10390;53.566;9.980;2023-05-07T01:31:30;9.95;;;6.45;;
20462;SDS011;10390;53.566;9.980;2023-05-07T01:33:58;8.27;;;7.22;;
20462;SDS011;10390;53.566;9.980;2023-05-07T01:36:26;9.18;;;7.40;;
20462;SDS011;10390;53.566;9.980;2023-05-07T01:38:54;7.68;;;6.43;;
20462;SDS011;10390;53.566;9.980;2023-05-07T01:41:22;9.85;;;6.82;;
20462;SDS011;10390;53.566;9.980;2023-05-07T01:43:48;10.82;;;7.38;;
20462;SDS011;10390;53.566;9.980;2023-05-07T01:46:17;7.68;;;5.90;;
20462;SDS011;10390;53.566;9.980;2023-05-07T01:48:43;8.55;;;6.95;;
20462;SDS011;10390;53.566;9.980;2023-05-07T01:51:11;9.10;;;7.22;;
20462;SDS011;10390;53.566;9.980;2023-05-07T01:53:37;7.65;;;6.47;;
20462;SDS011;10390;53.566;9.980;2023-05-07T01:56:04;8.05;;;6.72;;
20462;SDS011;10390;53.566;9.980;2023-05-07T01:58:30;8.38;;;6.75;;
20462;SDS011;10390;53.566;9.980;2023-05-07T02:00:56;8.57;;;6.60;;
20462;SDS011;10390;53.566;9.980;2023-05-07T02:03:21;8.55;;;6.63;;
20462;SDS011;10390;53.566;9.980;2023-05-07T02:05:47;9.38;;;6.22;;
20462;SDS011;10390;53.566;9.980;2023-05-07T02:08:13;9.70;;;7.32;;
20462;SDS011;10390;53.566;9.980;2023-05-07T02:10:38;8.35;;;6.57;;
20462;SDS011;10390;53.566;9.980;2023-05-07T02:13:04;7.75;;;6.38;;
20462;SDS011;10390;53.566;9.980;2023-05-07T02:15:30;9.38;;;7.05;;
20462;SDS011;10390;53.566;9.980;2023-05-07T02:18:07;8.15;;;6.88;;
20462;SDS011;10390;53.566;9.980;2023-05-07T02:20:34;8.15;;;7.05;;
20462;SDS011;10390;53.566;9.980;2023-05-07T02:23:00;7.95;;;7.05;;
20462;SDS011;10390;53.566;9.980;2023-05-07T02:25:25;7.75;;;6.57;;
20462;SDS011;10390;53.566;9.980;2023-05-07T02:27:51;7.90;;;7.10;;
20462;SDS011;10390;53.566;9.980;2023-05-07T02:30:17;8.00;;;7.13;;
20462;SDS011;10390;53.566;9.980;2023-05-07T02:32:43;8.27;;;6.40;;
20462;SDS011;10390;53.566;9.980;2023-05-07T02:35:08;9.30;;;6.60;;
20462;SDS011;10390;53.566;9.980;2023-05-07T02:37:34;8.88;;;6.40;;
20462;SDS011;10390;53.566;9.980;2023-05-07T02:40:00;7.53;;;6.60;;
20462;SDS011;10390;53.566;9.980;2023-05-07T02:42:25;8.48;;;6.53;;
20462;SDS011;10390;53.566;9.980;2023-05-07T02:44:51;8.88;;;6.40;;
20462;SDS011;10390;53.566;9.980;2023-05-07T02:47:16;7.10;;;6.20;;
20462;SDS011;10390;53.566;9.980;2023-05-07T02:49:42;8.38;;;6.47;;
20462;SDS011;10390;53.566;9.980;2023-05-07T02:52:07;10.40;;;7.30;;
20462;SDS011;10390;53.566;9.980;2023-05-07T02:54:33;7.97;;;7.15;;
20462;SDS011;10390;53.566;9.980;2023-05-07T02:56:59;7.72;;;6.50;;
20462;SDS011;10390;53.566;9.980;2023-05-07T02:59:26;8.27;;;6.80;;
20462;SDS011;10390;53.566;9.980;2023-05-07T03:01:51;7.88;;;6.05;;
20462;SDS011;10390;53.566;9.980;2023-05-07T03:04:17;6.75;;;5.93;;
20462;SDS011;10390;53.566;9.980;2023-05-07T03:06:42;8.40;;;6.50;;
20462;SDS011;10390;53.566;9.980;2023-05-07T03:09:08;7.65;;;5.88;;
20462;SDS011;10390;53.566;9.980;2023-05-07T03:11:34;8.02;;;6.78;;
20462;SDS011;10390;53.566;9.980;2023-05-07T03:14:00;6.95;;;6.18;;
20462;SDS011;10390;53.566;9.980;2023-05-07T03:16:26;7.85;;;6.40;;
20462;SDS011;10390;53.566;9.980;2023-05-07T03:18:52;8.68;;;6.32;;
20462;SDS011;10390;53.566;9.980;2023-05-07T03:21:18;7.80;;;6.40;;
20462;SDS011;10390;53.566;9.980;2023-05-07T03:23:43;7.35;;;6.35;;
20462;SDS011;10390;53.566;9.980;2023-05-07T03:26:09;7.15;;;5.80;;
20462;SDS011;10390;53.566;9.980;2023-05-07T03:28:34;7.10;;;5.95;;
20462;SDS011;10390;53.566;9.980;2023-05-07T03:31:00;7.05;;;6.35;;
20462;SDS011;10390;53.566;9.980;2023-05-07T03:33:26;7.82;;;6.43;;
20462;SDS011;10390;53.566;9.980;2023-05-07T03:35:52;8.20;;;6.68;;
20462;SDS011;10390;53.566;9.980;2023-05-07T03:38:18;7.78;;;6.20;;
20462;SDS011;10390;53.566;9.980;2023-05-07T03:40:43;7.45;;;6.43;;
20462;SDS011;10390;53.566;9.980;2023-05-07T03:43:09;8.68;;;6.63;;
20462;SDS011;10390;53.566;9.980;2023-05-07T03:45:35;8.50;;;6.72;;
20462;SDS011;10390;53.566;9.980;2023-05-07T03:48:00;8.07;;;6.35;;
20462;SDS011;10390;53.566;9.980;2023-05-07T03:50:26;7.60;;;6.63;;
20462;SDS011;10390;53.566;9.980;2023-05-07T03:52:52;7.68;;;6.57;;
20462;SDS011;10390;53.566;9.980;2023-05-07T03:55:17;7.30;;;6.20;;
20462;SDS011;10390;53.566;9.980;2023-05-07T03:57:43;7.70;;;6.88;;
20462;SDS011;10390;53.566;9.980;2023-05-07T04:00:09;6.53;;;5.78;;
20462;SDS011;10390;53.566;9.980;2023-05-07T04:02:35;7.20;;;6.50;;
20462;SDS011;10390;53.566;9.980;2023-05-07T04:05:03;7.20;;;6.45;;
20462;SDS011;10390;53.566;9.980;2023-05-07T04:07:30;8.38;;;6.63;;
20462;SDS011;10390;53.566;9.980;2023-05-07T04:10:02;7.93;;;5.82;;
20462;SDS011;10390;53.566;9.980;2023-05-07T04:12:28;7.00;;;6.30;;
20462;SDS011;10390;53.566;9.980;2023-05-07T04:14:56;6.32;;;5.63;;
20462;SDS011;10390;53.566;9.980;2023-05-07T04:17:22;7.47;;;6.13;;
20462;SDS011;10390;53.566;9.980;2023-05-07T04:19:48;7.53;;;6.40;;
20462;SDS011;10390;53.566;9.980;2023-05-07T04:22:13;8.13;;;6.60;;
20462;SDS011;10390;53.566;9.980;2023-05-07T04:24:42;8.30;;;6.43;;
20462;SDS011;10390;53.566;9.980;2023-05-07T04:27:08;6.93;;;5.63;;
20462;SDS011;10390;53.566;9.980;2023-05-07T04:29:34;7.32;;;5.95;;
20462;SDS011;10390;53.566;9.980;2023-05-07T04:32:02;7.47;;;6.10;;
20462;SDS011;10390;53.566;9.980;2023-05-07T04:34:30;7.93;;;6.13;;
20462;SDS011;10390;53.566;9.980;2023-05-07T04:36:59;7.28;;;6.05;;
20462;SDS011;10390;53.566;9.980;2023-05-07T04:39:24;7.10;;;6.40;;
20462;SDS011;10390;53.566;9.980;2023-05-07T04:41:50;7.45;;;5.60;;
20462;SDS011;10390;53.566;9.980;2023-05-07T04:44:18;7.63;;;5.82;;
20462;SDS011;10390;53.566;9.980;2023-05-07T04:46:47;9.98;;;5.97;;
20462;SDS011;10390;53.566;9.980;2023-05-07T04:49:12;6.45;;;5.47;;
20462;SDS011;10390;53.566;9.980;2023-05-07T04:51:43;8.07;;;6.10;;
20462;SDS011;10390;53.566;9.980;2023-05-07T04:54:09;7.35;;;6.57;;
20462;SDS011;10390;53.566;9.980;2023-05-07T04:56:35;7.43;;;6.50;;
20462;SDS011;10390;53.566;9.980;2023-05-07T04:59:03;7.45;;;6.68;;
20462;SDS011;10390;53.566;9.980;2023-05-07T05:01:29;7.80;;;6.18;;
20462;SDS011;10390;53.566;9.980;2023-05-07T05:03:58;6.60;;;5.90;;
20462;SDS011;10390;53.566;9.980;2023-05-07T05:06:25;6.15;;;5.55;;
20462;SDS011;10390;53.566;9.980;2023-05-07T05:08:51;10.48;;;6.07;;
20462;SDS011;10390;53.566;9.980;2023-05-07T05:11:16;7.40;;;6.47;;
20462;SDS011;10390;53.566;9.980;2023-05-07T05:13:42;8.05;;;6.68;;
20462;SDS011;10390;53.566;9.980;2023-05-07T05:16:08;10.25;;;6.00;;
20462;SDS011;10390;53.566;9.980;2023-05-07T05:18:34;10.07;;;6.40;;
20462;SDS011;10390;53.566;9.980;2023-05-07T05:20:59;8.05;;;6.70;;
20462;SDS011;10390;53.566;9.980;2023-05-07T05:23:25;11.70;;;6.60;;
20462;SDS011;10390;53.566;9.980;2023-05-07T05:25:55;9.48;;;6.20;;
20462;SDS011;10390;53.566;9.980;2023-05-07T05:28:23;8.90;;;6.20;;
20462;SDS011;10390;53.566;9.980;2023-05-07T05:30:49;12.13;;;7.15;;
20462;SDS011;10390;53.566;9.980;2023-05-07T05:33:15;10.32;;;7.22;;
20462;SDS011;10390;53.566;9.980;2023-05-07T05:35:41;10.02;;;6.82;;
20462;SDS011;10390;53.566;9.980;2023-05-07T05:38:07;8.38;;;6.25;;
20462;SDS011;10390;53.566;9.980;2023-05-07T05:40:32;11.27;;;6.47;;
20462;SDS011;10390;53.566;9.980;2023-05-07T05:42:58;11.30;;;6.78;;
20462;SDS011;10390;53.566;9.980;2023-05-07T05:45:24;9.15;;;7.20;;
20462;SDS011;10390;53.566;9.980;2023-05-07T05:47:50;8.80;;;6.45;;
20462;SDS011;10390;53.566;9.980;2023-05-07T05:50:15;11.77;;;7.47;;
20462;SDS011;10390;53.566;9.980;2023-05-07T05:52:41;9.48;;;6.50;;
20462;SDS011;10390;53.566;9.980;2023-05-07T05:55:07;8.20;;;7.05;;
20462;SDS011;10390;53.566;9.980;2023-05-07T05:57:33;9.18;;;7.40;;
20462;SDS011;10390;53.566;9.980;2023-05-07T05:59:59;12.70;;;7.03;;
20462;SDS011;10390;53.566;9.980;2023-05-07T06:02:25;8.45;;;6.97;;
20462;SDS011;10390;53.566;9.980;2023-05-07T06:04:51;8.82;;;6.13;;
20462;SDS011;10390;53.566;9.980;2023-05-07T06:07:16;8.77;;;6.35;;
20462;SDS011;10390;53.566;9.980;2023-05-07T06:09:42;10.13;;;6.40;;
20462;SDS011;10390;53.566;9.980;2023-05-07T06:12:08;8.60;;;6.57;;
20462;SDS011;10390;53.566;9.980;2023-05-07T06:14:33;9.40;;;6.55;;
20462;SDS011;10390;53.566;9.980;2023-05-07T06:16:59;8.10;;;6.57;;
20462;SDS011;10390;53.566;9.980;2023-05-07T06:19:24;9.13;;;6.10;;
20462;SDS011;10390;53.566;9.980;2023-05-07T06:21:51;15.73;;;7.25;;
20462;SDS011;10390;53.566;9.980;2023-05-07T06:24:17;10.52;;;6.47;;
20462;SDS011;10390;53.566;9.980;2023-05-07T06:26:42;10.32;;;7.00;;
20462;SDS011;10390;53.566;9.980;2023-05-07T06:29:08;11.68;;;7.18;;
20462;SDS011;10390;53.566;9.980;2023-05-07T06:31:34;10.55;;;7.38;;
20462;SDS011;10390;53.566;9.980;2023-05-07T06:33:59;15.32;;;7.00;;
20462;SDS011;10390;53.566;9.980;2023-05-07T06:36:27;10.80;;;7.07;;
20462;SDS011;10390;53.566;9.980;2023-05-07T06:38:53;9.95;;;6.95;;
20462;SDS011;10390;53.566;9.980;2023-05-07T06:41:18;13.43;;;6.40;;
20462;SDS011;10390;53.566;9.980;2023-05-07T06:43:45;13.32;;;7.05;;
20462;SDS011;10390;53.566;9.980;2023-05-07T06:46:11;10.45;;;7.10;;
20462;SDS011;10390;53.566;9.980;2023-05-07T06:48:36;11.48;;;6.40;;
20462;SDS011;10390;53.566;9.980;2023-05-07T06:51:02;11.68;;;7.68;;
20462;SDS011;10390;53.566;9.980;2023-05-07T06:53:28;11.32;;;7.03;;
20462;SDS011;10390;53.566;9.980;2023-05-07T06:55:55;13.95;;;6.80;;
20462;SDS011;10390;53.566;9.980;2023-05-07T06:58:21;11.48;;;6.50;;
20462;SDS011;10390;53.566;9.980;2023-05-07T07:00:47;14.48;;;7.38;;
20462;SDS011;10390;53.566;9.980;2023-05-07T07:03:13;11.85;;;7.15;;
20462;SDS011;10390;53.566;9.980;2023-05-07T07:05:42;12.43;;;7.03;;
20462;SDS011;10390;53.566;9.980;2023-05-07T07:08:09;17.10;;;7.28;;
20462;SDS011;10390;53.566;9.980;2023-05-07T07:10:34;10.63;;;7.10;;
20462;SDS011;10390;53.566;9.980;2023-05-07T07:13:00;10.10;;;7.07;;
20462;SDS011;10390;53.566;9.980;2023-05-07T07:15:26;9.25;;;7.50;;
20462;SDS011;10390;53.566;9.980;2023-05-07T07:17:51;12.68;;;6.90;;
20462;SDS011;10390;53.566;9.980;2023-05-07T07:20:17;12.98;;;6.45;;
20462;SDS011;10390;53.566;9.980;2023-05-07T07:22:42;8.70;;;6.88;;
20462;SDS011;10390;53.566;9.980;2023-05-07T07:25:08;10.05;;;6.60;;
20462;SDS011;10390;53.566;9.980;2023-05-07T07:27:34;13.10;;;6.50;;
20462;SDS011;10390;53.566;9.980;2023-05-07T07:30:00;9.15;;;6.60;;
20462;SDS011;10390;53.566;9.980;2023-05-07T07:32:25;8.88;;;5.88;;
20462;SDS011;10390;53.566;9.980;2023-05-07T07:34:51;8.20;;;5.93;;
20462;SDS011;10390;53.566;9.980;2023-05-07T07:37:17;8.88;;;6.60;;
20462;SDS011;10390;53.566;9.980;2023-05-07T07:39:42;6.63;;;5.55;;
20462;SDS011;10390;53.566;9.980;2023-05-07T07:42:08;8.82;;;5.93;;
20462;SDS011;10390;53.566;9.980;2023-05-07T07:44:34;9.60;;;6.72;;
20462;SDS011;10390;53.566;9.980;2023-05-07T07:46:59;7.53;;;6.50;;
20462;SDS011;10390;53.566;9.980;2023-05-07T07:49:26;7.97;;;6.20;;
20462;SDS011;10390;53.566;9.980;2023-05-07T07:51:51;8.43;;;5.72;;
20462;SDS011;10390;53.566;9.980;2023-05-07T07:54:17;11.85;;;6.75;;
20462;SDS011;10390;53.566;9.980;2023-05-07T07:56:43;7.88;;;5.57;;
20462;SDS011;10390;53.566;9.980;2023-05-07T07:59:08;7.47;;;6.00;;
20462;SDS011;10390;53.566;9.980;2023-05-07T08:01:34;7.57;;;5.57;;
20462;SDS011;10390;53.566;9.980;2023-05-07T08:03:59;6.35;;;5.65;;
20462;SDS011;10390;53.566;9.980;2023-05-07T08:06:27;11.05;;;6.75;;
20462;SDS011;10390;53.566;9.980;2023-05-07T08:08:53;7.05;;;5.78;;
20462;SDS011;10390;53.566;9.980;2023-05-07T08:11:19;7.88;;;5.22;;
20462;SDS011;10390;53.566;9.980;2023-05-07T08:13:46;8.23;;;6.30;;
20462;SDS011;10390;53.566;9.980;2023-05-07T08:16:11;7.00;;;6.15;;
20462;SDS011;10390;53.566;9.980;2023-05-07T08:18:37;9.32;;;5.90;;
20462;SDS011;10390;53.566;9.980;2023-05-07T08:21:03;7.35;;;5.85;;
20462;SDS011;10390;53.566;9.980;2023-05-07T08:23:28;7.18;;;6.00;;
20462;SDS011;10390;53.566;9.980;2023-05-07T08:25:55;6.28;;;5.43;;
20462;SDS011;10390;53.566;9.980;2023-05-07T08:28:20;6.45;;;5.30;;
20462;SDS011;10390;53.566;9.980;2023-05-07T08:30:46;7.63;;;6.07;;
20462;SDS011;10390;53.566;9.980;2023-05-07T08:33:12;6.57;;;5.78;;
20462;SDS011;10390;53.566;9.980;2023-05-07T08:35:38;8.45;;;6.10;;
20462;SDS011;10390;53.566;9.980;2023-05-07T08:38:03;7.63;;;6.90;;
20462;SDS011;10390;53.566;9.980;2023-05-07T08:40:29;7.32;;;6.32;;
20462;SDS011;10390;53.566;9.980;2023-05-07T08:43:07;6.72;;;6.10;;
20462;SDS011;10390;53.566;9.980;2023-05-07T08:45:34;6.70;;;5.90;;
20462;SDS011;10390;53.566;9.980;2023-05-07T08:48:05;7.53;;;5.93;;
20462;SDS011;10390;53.566;9.980;2023-05-07T08:50:35;6.60;;;5.85;;
20462;SDS011;10390;53.566;9.980;2023-05-07T08:53:02;7.18;;;5.90;;
20462;SDS011;10390;53.566;9.980;2023-05-07T08:55:29;7.05;;;5.72;;
20462;SDS011;10390;53.566;9.980;2023-05-07T08:57:55;5.72;;;5.13;;
20462;SDS011;10390;53.566;9.980;2023-05-07T09:00:21;6.75;;;5.78;;
20462;SDS011;10390;53.566;9.980;2023-05-07T09:02:46;6.57;;;5.80;;
20462;SDS011;10390;53.566;9.980;2023-05-07T09:05:12;7.20;;;6.00;;
20462;SDS011;10390;53.566;9.980;2023-05-07T09:07:38;7.50;;;5.63;;
20462;SDS011;10390;53.566;9.980;2023-05-07T09:10:04;6.97;;;6.05;;
20462;SDS011;10390;53.566;9.980;2023-05-07T09:12:31;6.53;;;5.93;;
20462;SDS011;10390;53.566;9.980;2023-05-07T09:14:56;6.60;;;5.65;;
20462;SDS011;10390;53.566;9.980;2023-05-07T09:17:22;6.57;;;5.60;;
20462;SDS011;10390;53.566;9.980;2023-05-07T09:19:47;6.10;;;5.47;;
20462;SDS011;10390;53.566;9.980;2023-05-07T09:22:13;7.00;;;6.15;;
20462;SDS011;10390;53.566;9.980;2023-05-07T09:24:39;7.30;;;5.13;;
20462;SDS011;10390;53.566;9.980;2023-05-07T09:27:05;7.22;;;5.72;;
20462;SDS011;10390;53.566;9.980;2023-05-07T09:29:31;6.30;;;5.70;;
20462;SDS011;10390;53.566;9.980;2023-05-07T09:32:07;6.65;;;5.78;;
20462;SDS011;10390;53.566;9.980;2023-05-07T09:34:33;6.25;;;5.60;;
20462;SDS011;10390;53.566;9.980;2023-05-07T09:37:03;7.22;;;5.60;;
20462;SDS011;10390;53.566;9.980;2023-05-07T09:39:46;6.80;;;6.10;;
20462;SDS011;10390;53.566;9.980;2023-05-07T09:42:13;5.90;;;5.30;;
20462;SDS011;10390;53.566;9.980;2023-05-07T09:44:45;6.22;;;5.40;;
20462;SDS011;10390;53.566;9.980;2023-05-07T09:47:12;7.07;;;5.40;;
20462;SDS011;10390;53.566;9.980;2023-05-07T09:49:45;6.25;;;5.60;;
20462;SDS011;10390;53.566;9.980;2023-05-07T09:52:12;5.70;;;5.10;;
20462;SDS011;10390;53.566;9.980;2023-05-07T09:54:39;7.32;;;5.40;;
20462;SDS011;10390;53.566;9.980;2023-05-07T09:57:08;5.90;;;5.30;;
20462;SDS011;10390;53.566;9.980;2023-05-07T09:59:37;6.75;;;5.85;;
20462;SDS011;10390;53.566;9.980;2023-05-07T10:02:04;5.88;;;5.28;;
20462;SDS011;10390;53.566;9.980;2023-05-07T10:04:31;5.82;;;5.15;;
20462;SDS011;10390;53.566;9.980;2023-05-07T10:06:57;7.32;;;5.63;;
20462;SDS011;10390;53.566;9.980;2023-05-07T10:09:26;6.60;;;5.65;;
20462;SDS011;10390;53.566;9.980;2023-05-07T10:11:52;6.20;;;5.50;;
20462;SDS011;10390;53.566;9.980;2023-05-07T10:14:22;6.55;;;5.85;;
20462;SDS011;10390;53.566;9.980;2023-05-07T10:16:49;6.30;;;5.43;;
20462;SDS011;10390;53.566;9.980;2023-05-07T10:19:16;6.10;;;5.20;;
20462;SDS011;10390;53.566;9.980;2023-05-07T10:21:44;5.60;;;5.00;;
20462;SDS011;10390;53.566;9.980;2023-05-07T10:26:56;6.85;;;5.88;;
20462;SDS011;10390;53.566;9.980;2023-05-07T10:32:19;5.50;;;5.00;;
20462;SDS011;10390;53.566;9.980;2023-05-07T10:35:16;5.78;;;5.03;;
20462;SDS011;10390;53.566;9.980;2023-05-07T10:37:45;4.90;;;4.40;;
20462;SDS011;10390;53.566;9.980;2023-05-07T10:40:11;6.28;;;4.60;;
20462;SDS011;10390;53.566;9.980;2023-05-07T10:42:38;5.97;;;4.80;;
20462;SDS011;10390;53.566;9.980;2023-05-07T10:45:13;5.95;;;5.28;;
20462;SDS011;10390;53.566;9.980;2023-05-07T10:50:30;5.85;;;4.80;;
20462;SDS011;10390;53.566;9.980;2023-05-07T10:55:40;6.43;;;5.53;;
20462;SDS011;10390;53.566;9.980;2023-05-07T10:58:27;5.93;;;5.05;;
20462;SDS011;10390;53.566;9.980;2023-05-07T11:00:59;5.80;;;4.93;;
20462;SDS011;10390;53.566;9.980;2023-05-07T11:03:26;5.82;;;4.90;;
20462;SDS011;10390;53.566;9.980;2023-05-07T11:06:08;5.95;;;5.00;;
20462;SDS011;10390;53.566;9.980;2023-05-07T11:08:55;6.10;;;5.50;;
20462;SDS011;10390;53.566;9.980;2023-05-07T11:14:09;6.60;;;5.55;;
20462;SDS011;10390;53.566;9.980;2023-05-07T11:16:35;7.97;;;6.25;;
20462;SDS011;10390;53.566;9.980;2023-05-07T11:19:03;8.00;;;5.78;;
20462;SDS011;10390;53.566;9.980;2023-05-07T11:21:38;8.20;;;6.25;;
20462;SDS011;10390;53.566;9.980;2023-05-07T11:24:05;8.90;;;6.25;;
20462;SDS011;10390;53.566;9.980;2023-05-07T11:29:13;11.75;;;6.30;;
20462;SDS011;10390;53.566;9.980;2023-05-07T11:31:43;9.00;;;6.72;;
20462;SDS011;10390;53.566;9.980;2023-05-07T11:34:09;13.75;;;6.93;;
20462;SDS011;10390;53.566;9.980;2023-05-07T11:36:36;10.65;;;6.43;;
20462;SDS011;10390;53.566;9.980;2023-05-07T11:39:23;8.45;;;6.07;;
20462;SDS011;10390;53.566;9.980;2023-05-07T11:42:00;7.32;;;5.95;;
20462;SDS011;10390;53.566;9.980;2023-05-07T11:44:43;9.55;;;6.50;;
20462;SDS011;10390;53.566;9.980;2023-05-07T11:47:10;12.27;;;5.70;;
20462;SDS011;10390;53.566;9.980;2023-05-07T11:49:36;10.70;;;6.03;;
20462;SDS011;10390;53.566;9.980;2023-05-07T11:52:02;8.00;;;6.20;;
20462;SDS011;10390;53.566;9.980;2023-05-07T11:54:34;7.13;;;6.18;;
20462;SDS011;10390;53.566;9.980;2023-05-07T11:57:01;9.63;;;6.25;;
20462;SDS011;10390;53.566;9.980;2023-05-07T11:59:27;7.70;;;6.10;;
20462;SDS011;10390;53.566;9.980;2023-05-07T12:01:55;10.90;;;6.55;;
20462;SDS011;10390;53.566;9.980;2023-05-07T12:04:22;11.25;;;7.03;;
20462;SDS011;10390;53.566;9.980;2023-05-07T12:06:48;8.98;;;6.45;;
20462;SDS011;10390;53.566;9.980;2023-05-07T12:09:15;7.65;;;6.55;;
20462;SDS011;10390;53.566;9.980;2023-05-07T12:11:42;9.75;;;6.45;;
20462;SDS011;10390;53.566;9.980;2023-05-07T12:14:11;12.38;;;7.50;;
20462;SDS011;10390;53.566;9.980;2023-05-07T12:16:37;11.15;;;6.68;;
20462;SDS011;10390;53.566;9.980;2023-05-07T12:19:05;7.88;;;6.00;;
20462;SDS011;10390;53.566;9.980;2023-05-07T12:21:33;9.63;;;6.05;;
20462;SDS011;10390;53.566;9.980;2023-05-07T12:23:59;10.60;;;6.22;;
20462;SDS011;10390;53.566;9.980;2023-05-07T12:26:24;9.63;;;5.55;;
20462;SDS011;10390;53.566;9.980;2023-05-07T12:28:50;11.93;;;5.70;;
20462;SDS011;10390;53.566;9.980;2023-05-07T12:31:15;11.50;;;5.60;;
20462;SDS011;10390;53.566;9.980;2023-05-07T12:33:42;11.43;;;6.18;;
20462;SDS011;10390;53.566;9.980;2023-05-07T12:36:08;9.18;;;5.95;;
20462;SDS011;10390;53.566;9.980;2023-05-07T12:38:34;9.95;;;5.60;;
20462;SDS011;10390;53.566;9.980;2023-05-07T12:41:04;13.20;;;5.65;;
20462;SDS011;10390;53.566;9.980;2023-05-07T12:43:31;10.07;;;5.53;;
20462;SDS011;10390;53.566;9.980;2023-05-07T12:46:00;8.73;;;5.40;;
20462;SDS011;10390;53.566;9.980;2023-05-07T12:48:27;9.75;;;5.43;;
20462;SDS011;10390;53.566;9.980;2023-05-07T12:50:53;9.93;;;5.43;;
20462;SDS011;10390;53.566;9.980;2023-05-07T12:53:21;7.22;;;5.50;;
20462;SDS011;10390;53.566;9.980;2023-05-07T12:55:48;6.43;;;5.07;;
20462;SDS011;10390;53.566;9.980;2023-05-07T12:58:19;6.35;;;4.93;;
20462;SDS011;10390;53.566;9.980;2023-05-07T13:00:49;8.10;;;5.05;;
20462;SDS011;10390;53.566;9.980;2023-05-07T13:03:22;9.00;;;4.68;;
20462;SDS011;10390;53.566;9.980;2023-05-07T13:05:48;7.43;;;5.10;;
20462;SDS011;10390;53.566;9.980;2023-05-07T13:08:28;7.65;;;5.00;;
20462;SDS011;10390;53.566;9.980;2023-05-07T13:10:59;6.28;;;4.90;;
20462;SDS011;10390;53.566;9.980;2023-05-07T13:13:28;8.20;;;4.75;;
20462;SDS011;10390;53.566;9.980;2023-05-07T13:15:58;7.47;;;5.28;;
20462;SDS011;10390;53.566;9.980;2023-05-07T13:18:26;8.80;;;5.70;;
20462;SDS011;10390;53.566;9.980;2023-05-07T13:20:54;12.40;;;5.70;;
20462;SDS011;10390;53.566;9.980;2023-05-07T13:23:20;6.63;;;5.10;;
20462;SDS011;10390;53.566;9.980;2023-05-07T13:25:45;6.68;;;5.38;;
20462;SDS011;10390;53.566;9.980;2023-05-07T13:28:11;6.18;;;5.28;;
20462;SDS011;10390;53.566;9.980;2023-05-07T13:30:37;6.20;;;5.45;;
20462;SDS011;10390;53.566;9.980;2023-05-07T13:33:03;6.13;;;4.50;;
20462;SDS011;10390;53.566;9.980;2023-05-07T13:35:28;7.50;;;5.30;;
20462;SDS011;10390;53.566;9.980;2023-05-07T13:37:54;5.97;;;5.10;;
20462;SDS011;10390;53.566;9.980;2023-05-07T13:40:21;5.57;;;5.00;;
20462;SDS011;10390;53.566;9.980;2023-05-07T13:42:47;7.00;;;5.03;;
20462;SDS011;10390;53.566;9.980;2023-05-07T13:45:13;5.57;;;4.97;;
20462;SDS011;10390;53.566;9.980;2023-05-07T13:47:42;8.00;;;5.28;;
20462;SDS011;10390;53.566;9.980;2023-05-07T13:50:09;6.28;;;5.38;;
20462;SDS011;10390;53.566;9.980;2023-05-07T13:52:36;7.07;;;5.38;;
20462;SDS011;10390;53.566;9.980;2023-05-07T13:55:06;18.65;;;6.13;;
20462;SDS011;10390;53.566;9.980;2023-05-07T13:57:32;7.40;;;6.22;;
20462;SDS011;10390;53.566;9.980;2023-05-07T13:59:57;6.70;;;5.28;;
20462;SDS011;10390;53.566;9.980;2023-05-07T14:02:23;5.97;;;5.35;;
20462;SDS011;10390;53.566;9.980;2023-05-07T14:04:49;7.35;;;5.85;;
20462;SDS011;10390;53.566;9.980;2023-05-07T14:07:14;6.43;;;5.82;;
20462;SDS011;10390;53.566;9.980;2023-05-07T14:09:40;5.63;;;5.07;;
20462;SDS011;10390;53.566;9.980;2023-05-07T14:12:05;5.90;;;5.30;;
20462;SDS011;10390;53.566;9.980;2023-05-07T14:14:31;5.93;;;5.43;;
20462;SDS011;10390;53.566;9.980;2023-05-07T14:16:57;9.05;;;5.80;;
20462;SDS011;10390;53.566;9.980;2023-05-07T14:19:23;7.78;;;5.88;;
20462;SDS011;10390;53.566;9.980;2023-05-07T14:21:48;8.65;;;5.05;;
20462;SDS011;10390;53.566;9.980;2023-05-07T14:24:14;10.85;;;6.13;;
20462;SDS011;10390;53.566;9.980;2023-05-07T14:26:40;12.68;;;6.53;;
20462;SDS011;10390;53.566;9.980;2023-05-07T14:29:05;8.52;;;6.13;;
20462;SDS011;10390;53.566;9.980;2023-05-07T14:31:31;10.07;;;6.00;;
20462;SDS011;10390;53.566;9.980;2023-05-07T14:33:58;11.82;;;5.72;;
20462;SDS011;10390;53.566;9.980;2023-05-07T14:36:23;6.50;;;5.80;;
20462;SDS011;10390;53.566;9.980;2023-05-07T14:38:51;9.80;;;5.68;;
20462;SDS011;10390;53.566;9.980;2023-05-07T14:41:22;10.45;;;6.00;;
20462;SDS011;10390;53.566;9.980;2023-05-07T14:43:47;12.93;;;6.05;;
20462;SDS011;10390;53.566;9.980;2023-05-07T14:46:18;18.08;;;6.78;;
20462;SDS011;10390;53.566;9.980;2023-05-07T14:48:44;14.85;;;6.32;;
20462;SDS011;10390;53.566;9.980;2023-05-07T14:51:11;16.60;;;7.35;;
20462;SDS011;10390;53.566;9.980;2023-05-07T14:53:37;21.58;;;6.63;;
20462;SDS011;10390;53.566;9.980;2023-05-07T14:56:03;11.40;;;6.10;;
20462;SDS011;10390;53.566;9.980;2023-05-07T14:58:30;15.95;;;6.18;;